Portada
METAR-TAF:

METAR-TAF

Aeropuertos :

Aeropuerto Internacional de Arkansas

Blytheville, Arkansas, Estados Unidos

latitud: 35-58N, longitud: 089-57W, altitud: 78 m

Observación

El informe se hizo hace 10 horas y 48 minutos, a las 20:53 UTC
Viento 7 kt del sur-suroeste con ráfagas de 18 kt
Temperatura 23°C
Humedad 83%
Presión 1012 hPa
Visibilidad: 16.1 km
Cielo nuboso a una altura de 15000 ft
Cielo cubierto a una altura de 25000 ft

METAR: KBYH 052053Z 21007G18KT 10SM BKN150 OVC250 23/20 A2989 RMK LAST

Hora: 02:41 (07:41 UTC)


TAF: falta

Observaciones y pronósticos meteorológicos de más de 4000 aeropuertos (mensajes METAR y TAF).

Los puntos amarillos y rojos representan las estaciones disponibles.

Ponga el ratón en el punto deseado para ver el nombre de la estación.

Haga clic para ver las observaciones y los pronósticos meteorológicos.

Para cambiar el mapa : haga clic en los botones verdes con una cruz de color negro para hacer un zoom, en el botón verde con un guión para alejar o en las flechas verdes para mapas adyacentes.


METAR-TAF: